sensor_id;sensor_type;location;lat;lon;timestamp;P1;durP1;ratioP1;P2;durP2;ratioP2
80852;SDS011;70270;43.434;28.338;2023-07-13T00:02:33;30.15;;;20.85;;
80852;SDS011;70270;43.434;28.338;2023-07-13T00:05:17;26.63;;;20.70;;
80852;SDS011;70270;43.434;28.338;2023-07-13T00:08:02;29.42;;;22.88;;
80852;SDS011;70270;43.434;28.338;2023-07-13T00:10:46;30.83;;;23.25;;
80852;SDS011;70270;43.434;28.338;2023-07-13T00:13:31;30.08;;;22.75;;
80852;SDS011;70270;43.434;28.338;2023-07-13T00:16:15;30.83;;;24.73;;
80852;SDS011;70270;43.434;28.338;2023-07-13T00:19:00;35.47;;;25.25;;
80852;SDS011;70270;43.434;28.338;2023-07-13T00:21:45;31.35;;;25.35;;
80852;SDS011;70270;43.434;28.338;2023-07-13T00:24:30;30.17;;;24.98;;
80852;SDS011;70270;43.434;28.338;2023-07-13T00:27:14;30.20;;;26.13;;
80852;SDS011;70270;43.434;28.338;2023-07-13T00:29:59;33.13;;;24.52;;
80852;SDS011;70270;43.434;28.338;2023-07-13T00:32:43;34.42;;;25.65;;
80852;SDS011;70270;43.434;28.338;2023-07-13T00:35:29;33.40;;;26.52;;
80852;SDS011;70270;43.434;28.338;2023-07-13T00:38:15;33.75;;;26.85;;
80852;SDS011;70270;43.434;28.338;2023-07-13T00:40:59;33.75;;;25.90;;
80852;SDS011;70270;43.434;28.338;2023-07-13T00:43:44;38.95;;;27.30;;
80852;SDS011;70270;43.434;28.338;2023-07-13T00:46:30;40.25;;;29.88;;
80852;SDS011;70270;43.434;28.338;2023-07-13T00:49:17;43.10;;;29.83;;
80852;SDS011;70270;43.434;28.338;2023-07-13T00:52:07;38.00;;;30.55;;
80852;SDS011;70270;43.434;28.338;2023-07-13T00:54:53;40.63;;;29.40;;
80852;SDS011;70270;43.434;28.338;2023-07-13T00:57:38;41.45;;;29.02;;
80852;SDS011;70270;43.434;28.338;2023-07-13T01:00:25;43.28;;;30.40;;
80852;SDS011;70270;43.434;28.338;2023-07-13T01:03:10;39.83;;;29.92;;
80852;SDS011;70270;43.434;28.338;2023-07-13T01:05:55;39.50;;;33.13;;
80852;SDS011;70270;43.434;28.338;2023-07-13T01:08:39;47.75;;;33.00;;
80852;SDS011;70270;43.434;28.338;2023-07-13T01:11:24;45.65;;;35.00;;
80852;SDS011;70270;43.434;28.338;2023-07-13T01:14:08;40.88;;;32.80;;
80852;SDS011;70270;43.434;28.338;2023-07-13T01:16:53;49.83;;;36.40;;
80852;SDS011;70270;43.434;28.338;2023-07-13T01:22:24;39.88;;;33.40;;
80852;SDS011;70270;43.434;28.338;2023-07-13T01:25:09;51.45;;;35.47;;
80852;SDS011;70270;43.434;28.338;2023-07-13T01:27:53;52.97;;;36.10;;
80852;SDS011;70270;43.434;28.338;2023-07-13T01:30:38;52.25;;;37.38;;
80852;SDS011;70270;43.434;28.338;2023-07-13T01:33:24;43.08;;;35.08;;
80852;SDS011;70270;43.434;28.338;2023-07-13T01:36:10;45.28;;;32.63;;
80852;SDS011;70270;43.434;28.338;2023-07-13T01:38:55;47.05;;;35.38;;
80852;SDS011;70270;43.434;28.338;2023-07-13T01:41:40;45.70;;;36.17;;
80852;SDS011;70270;43.434;28.338;2023-07-13T01:44:24;44.25;;;36.90;;
80852;SDS011;70270;43.434;28.338;2023-07-13T01:47:10;51.70;;;39.10;;
80852;SDS011;70270;43.434;28.338;2023-07-13T01:49:55;51.92;;;35.75;;
80852;SDS011;70270;43.434;28.338;2023-07-13T01:52:39;48.35;;;37.63;;
80852;SDS011;70270;43.434;28.338;2023-07-13T01:55:24;50.67;;;39.95;;
80852;SDS011;70270;43.434;28.338;2023-07-13T01:58:08;53.15;;;41.22;;
80852;SDS011;70270;43.434;28.338;2023-07-13T02:00:52;47.53;;;36.20;;
80852;SDS011;70270;43.434;28.338;2023-07-13T02:03:45;50.38;;;37.75;;
80852;SDS011;70270;43.434;28.338;2023-07-13T02:06:30;46.55;;;35.28;;
80852;SDS011;70270;43.434;28.338;2023-07-13T02:09:15;52.63;;;37.75;;
80852;SDS011;70270;43.434;28.338;2023-07-13T02:11:59;55.05;;;38.85;;
80852;SDS011;70270;43.434;28.338;2023-07-13T02:14:48;53.63;;;40.60;;
80852;SDS011;70270;43.434;28.338;2023-07-13T02:17:33;53.95;;;41.00;;
80852;SDS011;70270;43.434;28.338;2023-07-13T02:23:03;50.72;;;37.42;;
80852;SDS011;70270;43.434;28.338;2023-07-13T02:25:48;53.45;;;38.53;;
80852;SDS011;70270;43.434;28.338;2023-07-13T02:28:33;50.20;;;40.72;;
80852;SDS011;70270;43.434;28.338;2023-07-13T02:31:18;52.80;;;40.15;;
80852;SDS011;70270;43.434;28.338;2023-07-13T02:34:03;56.00;;;40.67;;
80852;SDS011;70270;43.434;28.338;2023-07-13T02:36:47;64.40;;;45.83;;
80852;SDS011;70270;43.434;28.338;2023-07-13T02:39:32;62.05;;;46.30;;
80852;SDS011;70270;43.434;28.338;2023-07-13T02:42:16;60.25;;;43.83;;
80852;SDS011;70270;43.434;28.338;2023-07-13T02:45:02;61.67;;;45.00;;
80852;SDS011;70270;43.434;28.338;2023-07-13T02:47:46;55.42;;;42.05;;
80852;SDS011;70270;43.434;28.338;2023-07-13T02:50:31;65.47;;;45.35;;
80852;SDS011;70270;43.434;28.338;2023-07-13T02:53:15;59.80;;;44.53;;
80852;SDS011;70270;43.434;28.338;2023-07-13T02:56:00;66.53;;;47.05;;
80852;SDS011;70270;43.434;28.338;2023-07-13T02:58:44;61.15;;;46.53;;
80852;SDS011;70270;43.434;28.338;2023-07-13T03:01:29;65.18;;;44.55;;
80852;SDS011;70270;43.434;28.338;2023-07-13T03:04:13;64.68;;;44.80;;
80852;SDS011;70270;43.434;28.338;2023-07-13T03:06:58;76.93;;;49.22;;
80852;SDS011;70270;43.434;28.338;2023-07-13T03:09:49;62.88;;;48.78;;
80852;SDS011;70270;43.434;28.338;2023-07-13T03:12:42;67.25;;;49.40;;
80852;SDS011;70270;43.434;28.338;2023-07-13T03:15:34;70.75;;;50.00;;
80852;SDS011;70270;43.434;28.338;2023-07-13T03:18:18;77.38;;;52.13;;
80852;SDS011;70270;43.434;28.338;2023-07-13T03:21:03;75.75;;;50.47;;
80852;SDS011;70270;43.434;28.338;2023-07-13T03:23:48;86.00;;;57.05;;
80852;SDS011;70270;43.434;28.338;2023-07-13T03:26:33;80.32;;;56.58;;
80852;SDS011;70270;43.434;28.338;2023-07-13T03:29:17;73.55;;;52.08;;
80852;SDS011;70270;43.434;28.338;2023-07-13T03:32:02;83.78;;;52.35;;
80852;SDS011;70270;43.434;28.338;2023-07-13T03:34:49;71.28;;;51.53;;
80852;SDS011;70270;43.434;28.338;2023-07-13T03:37:34;64.50;;;47.03;;
80852;SDS011;70270;43.434;28.338;2023-07-13T03:40:19;65.70;;;49.53;;
80852;SDS011;70270;43.434;28.338;2023-07-13T03:43:04;65.53;;;47.22;;
80852;SDS011;70270;43.434;28.338;2023-07-13T03:45:49;56.42;;;44.10;;
80852;SDS011;70270;43.434;28.338;2023-07-13T03:48:33;58.95;;;44.50;;
80852;SDS011;70270;43.434;28.338;2023-07-13T03:51:18;60.00;;;41.83;;
80852;SDS011;70270;43.434;28.338;2023-07-13T03:54:03;57.97;;;44.92;;
80852;SDS011;70270;43.434;28.338;2023-07-13T03:56:48;59.63;;;43.55;;
80852;SDS011;70270;43.434;28.338;2023-07-13T03:59:34;55.13;;;41.47;;
80852;SDS011;70270;43.434;28.338;2023-07-13T04:02:20;62.25;;;44.08;;
80852;SDS011;70270;43.434;28.338;2023-07-13T04:05:05;57.95;;;44.05;;
80852;SDS011;70270;43.434;28.338;2023-07-13T04:07:50;58.53;;;45.42;;
80852;SDS011;70270;43.434;28.338;2023-07-13T04:10:34;56.50;;;43.33;;
80852;SDS011;70270;43.434;28.338;2023-07-13T04:13:19;51.03;;;40.33;;
80852;SDS011;70270;43.434;28.338;2023-07-13T04:16:04;55.05;;;41.92;;
80852;SDS011;70270;43.434;28.338;2023-07-13T04:18:48;51.22;;;40.67;;
80852;SDS011;70270;43.434;28.338;2023-07-13T04:21:33;52.08;;;36.13;;
80852;SDS011;70270;43.434;28.338;2023-07-13T04:24:19;62.60;;;44.00;;
80852;SDS011;70270;43.434;28.338;2023-07-13T04:27:03;54.72;;;42.08;;
80852;SDS011;70270;43.434;28.338;2023-07-13T04:29:48;59.72;;;43.72;;
80852;SDS011;70270;43.434;28.338;2023-07-13T04:32:32;54.35;;;40.72;;
80852;SDS011;70270;43.434;28.338;2023-07-13T04:35:17;54.42;;;42.30;;
80852;SDS011;70270;43.434;28.338;2023-07-13T04:38:04;58.50;;;38.28;;
80852;SDS011;70270;43.434;28.338;2023-07-13T04:40:48;55.25;;;41.95;;
80852;SDS011;70270;43.434;28.338;2023-07-13T04:43:33;55.85;;;41.65;;
80852;SDS011;70270;43.434;28.338;2023-07-13T04:46:17;57.45;;;38.50;;
80852;SDS011;70270;43.434;28.338;2023-07-13T04:49:03;48.33;;;40.88;;
80852;SDS011;70270;43.434;28.338;2023-07-13T04:51:48;54.35;;;39.40;;
80852;SDS011;70270;43.434;28.338;2023-07-13T04:54:33;54.92;;;40.22;;
80852;SDS011;70270;43.434;28.338;2023-07-13T05:00:03;56.22;;;39.28;;
80852;SDS011;70270;43.434;28.338;2023-07-13T05:02:49;50.50;;;39.83;;
80852;SDS011;70270;43.434;28.338;2023-07-13T05:05:33;47.33;;;32.30;;
80852;SDS011;70270;43.434;28.338;2023-07-13T05:08:18;54.90;;;39.17;;
80852;SDS011;70270;43.434;28.338;2023-07-13T05:11:03;49.45;;;38.35;;
80852;SDS011;70270;43.434;28.338;2023-07-13T05:13:49;50.78;;;37.58;;
80852;SDS011;70270;43.434;28.338;2023-07-13T05:16:33;47.85;;;37.63;;
80852;SDS011;70270;43.434;28.338;2023-07-13T05:19:18;48.83;;;33.05;;
80852;SDS011;70270;43.434;28.338;2023-07-13T05:22:02;49.63;;;37.80;;
80852;SDS011;70270;43.434;28.338;2023-07-13T05:24:48;43.92;;;34.28;;
80852;SDS011;70270;43.434;28.338;2023-07-13T05:27:32;45.28;;;33.83;;
80852;SDS011;70270;43.434;28.338;2023-07-13T05:30:17;47.83;;;34.05;;
80852;SDS011;70270;43.434;28.338;2023-07-13T05:33:01;46.38;;;35.25;;
80852;SDS011;70270;43.434;28.338;2023-07-13T05:35:46;50.53;;;38.92;;
80852;SDS011;70270;43.434;28.338;2023-07-13T05:38:31;43.05;;;33.63;;
80852;SDS011;70270;43.434;28.338;2023-07-13T05:41:16;45.92;;;35.47;;
80852;SDS011;70270;43.434;28.338;2023-07-13T05:44:00;40.88;;;31.33;;
80852;SDS011;70270;43.434;28.338;2023-07-13T05:46:44;37.90;;;29.75;;
80852;SDS011;70270;43.434;28.338;2023-07-13T05:49:29;45.25;;;32.20;;
80852;SDS011;70270;43.434;28.338;2023-07-13T05:52:14;39.58;;;30.20;;
80852;SDS011;70270;43.434;28.338;2023-07-13T05:54:58;38.05;;;30.67;;
80852;SDS011;70270;43.434;28.338;2023-07-13T05:57:43;38.08;;;28.75;;
80852;SDS011;70270;43.434;28.338;2023-07-13T06:00:27;32.80;;;26.45;;
80852;SDS011;70270;43.434;28.338;2023-07-13T06:03:12;38.45;;;25.83;;
80852;SDS011;70270;43.434;28.338;2023-07-13T06:05:56;32.15;;;27.00;;
80852;SDS011;70270;43.434;28.338;2023-07-13T06:08:41;32.88;;;25.92;;
80852;SDS011;70270;43.434;28.338;2023-07-13T06:11:26;38.22;;;25.15;;
80852;SDS011;70270;43.434;28.338;2023-07-13T06:14:13;32.25;;;26.08;;
80852;SDS011;70270;43.434;28.338;2023-07-13T06:16:58;33.10;;;25.25;;
80852;SDS011;70270;43.434;28.338;2023-07-13T06:19:42;30.42;;;24.00;;
80852;SDS011;70270;43.434;28.338;2023-07-13T06:22:27;31.02;;;24.98;;
80852;SDS011;70270;43.434;28.338;2023-07-13T06:25:11;31.50;;;24.63;;
80852;SDS011;70270;43.434;28.338;2023-07-13T06:27:56;29.67;;;24.67;;
80852;SDS011;70270;43.434;28.338;2023-07-13T06:30:40;36.92;;;26.40;;
80852;SDS011;70270;43.434;28.338;2023-07-13T06:33:25;29.23;;;21.65;;
80852;SDS011;70270;43.434;28.338;2023-07-13T06:36:10;29.90;;;22.42;;
80852;SDS011;70270;43.434;28.338;2023-07-13T06:38:54;34.25;;;25.83;;
80852;SDS011;70270;43.434;28.338;2023-07-13T06:41:38;23.33;;;20.83;;
80852;SDS011;70270;43.434;28.338;2023-07-13T06:44:28;29.90;;;21.02;;
80852;SDS011;70270;43.434;28.338;2023-07-13T06:47:12;26.60;;;21.20;;
80852;SDS011;70270;43.434;28.338;2023-07-13T06:49:57;26.75;;;19.83;;
80852;SDS011;70270;43.434;28.338;2023-07-13T06:52:41;29.23;;;22.50;;
80852;SDS011;70270;43.434;28.338;2023-07-13T06:55:26;30.77;;;20.83;;
80852;SDS011;70270;43.434;28.338;2023-07-13T06:58:10;30.05;;;20.75;;
80852;SDS011;70270;43.434;28.338;2023-07-13T07:00:54;28.13;;;21.52;;
80852;SDS011;70270;43.434;28.338;2023-07-13T07:03:39;27.25;;;21.35;;
80852;SDS011;70270;43.434;28.338;2023-07-13T07:06:24;29.00;;;21.02;;
80852;SDS011;70270;43.434;28.338;2023-07-13T07:09:08;30.52;;;20.67;;
80852;SDS011;70270;43.434;28.338;2023-07-13T07:11:52;28.38;;;20.52;;
80852;SDS011;70270;43.434;28.338;2023-07-13T07:14:37;26.27;;;20.75;;
80852;SDS011;70270;43.434;28.338;2023-07-13T07:17:21;28.08;;;21.80;;
80852;SDS011;70270;43.434;28.338;2023-07-13T07:20:06;23.42;;;20.05;;
80852;SDS011;70270;43.434;28.338;2023-07-13T07:22:51;28.60;;;19.80;;
80852;SDS011;70270;43.434;28.338;2023-07-13T07:25:36;26.85;;;20.23;;
80852;SDS011;70270;43.434;28.338;2023-07-13T07:28:26;25.58;;;18.27;;
80852;SDS011;70270;43.434;28.338;2023-07-13T07:31:12;30.52;;;18.33;;
80852;SDS011;70270;43.434;28.338;2023-07-13T07:33:56;23.20;;;18.48;;
80852;SDS011;70270;43.434;28.338;2023-07-13T07:36:41;23.92;;;19.00;;
80852;SDS011;70270;43.434;28.338;2023-07-13T07:39:25;30.25;;;17.90;;
80852;SDS011;70270;43.434;28.338;2023-07-13T07:42:10;22.83;;;18.63;;
80852;SDS011;70270;43.434;28.338;2023-07-13T07:44:56;23.27;;;17.67;;
80852;SDS011;70270;43.434;28.338;2023-07-13T07:47:41;24.63;;;17.90;;
80852;SDS011;70270;43.434;28.338;2023-07-13T07:50:26;23.38;;;16.58;;
80852;SDS011;70270;43.434;28.338;2023-07-13T07:53:11;22.73;;;17.25;;
80852;SDS011;70270;43.434;28.338;2023-07-13T07:55:56;26.02;;;18.98;;
80852;SDS011;70270;43.434;28.338;2023-07-13T07:58:41;22.92;;;17.00;;
80852;SDS011;70270;43.434;28.338;2023-07-13T08:01:26;19.45;;;15.73;;
80852;SDS011;70270;43.434;28.338;2023-07-13T08:04:10;21.13;;;16.40;;
80852;SDS011;70270;43.434;28.338;2023-07-13T08:06:55;20.27;;;15.68;;
80852;SDS011;70270;43.434;28.338;2023-07-13T08:09:42;19.98;;;16.33;;
80852;SDS011;70270;43.434;28.338;2023-07-13T08:12:27;18.13;;;15.50;;
80852;SDS011;70270;43.434;28.338;2023-07-13T08:15:13;21.63;;;15.88;;
80852;SDS011;70270;43.434;28.338;2023-07-13T08:17:59;22.95;;;14.98;;
80852;SDS011;70270;43.434;28.338;2023-07-13T08:20:43;22.27;;;16.38;;
80852;SDS011;70270;43.434;28.338;2023-07-13T08:26:13;29.15;;;16.65;;
80852;SDS011;70270;43.434;28.338;2023-07-13T08:28:57;21.67;;;14.75;;
80852;SDS011;70270;43.434;28.338;2023-07-13T08:31:42;24.58;;;17.05;;
80852;SDS011;70270;43.434;28.338;2023-07-13T08:34:26;20.60;;;15.88;;
80852;SDS011;70270;43.434;28.338;2023-07-13T08:37:11;28.35;;;16.63;;
80852;SDS011;70270;43.434;28.338;2023-07-13T08:39:56;23.33;;;17.77;;
80852;SDS011;70270;43.434;28.338;2023-07-13T08:42:48;22.20;;;17.30;;
80852;SDS011;70270;43.434;28.338;2023-07-13T08:45:40;24.95;;;17.60;;
80852;SDS011;70270;43.434;28.338;2023-07-13T08:48:31;26.70;;;18.80;;
80852;SDS011;70270;43.434;28.338;2023-07-13T08:57:16;22.80;;;18.23;;
80852;SDS011;70270;43.434;28.338;2023-07-13T09:00:03;26.30;;;17.88;;
80852;SDS011;70270;43.434;28.338;2023-07-13T09:02:52;35.75;;;18.58;;
80852;SDS011;70270;43.434;28.338;2023-07-13T09:05:41;20.50;;;17.88;;
80852;SDS011;70270;43.434;28.338;2023-07-13T09:11:41;24.92;;;19.17;;
80852;SDS011;70270;43.434;28.338;2023-07-13T09:14:53;26.67;;;19.08;;
80852;SDS011;70270;43.434;28.338;2023-07-13T09:17:41;25.05;;;17.00;;
80852;SDS011;70270;43.434;28.338;2023-07-13T09:20:34;26.30;;;20.40;;
80852;SDS011;70270;43.434;28.338;2023-07-13T09:23:23;31.13;;;18.13;;
80852;SDS011;70270;43.434;28.338;2023-07-13T09:26:14;23.55;;;19.08;;
80852;SDS011;70270;43.434;28.338;2023-07-13T09:29:14;28.27;;;20.60;;
80852;SDS011;70270;43.434;28.338;2023-07-13T09:32:07;28.05;;;17.92;;
80852;SDS011;70270;43.434;28.338;2023-07-13T09:34:56;22.48;;;19.85;;
80852;SDS011;70270;43.434;28.338;2023-07-13T09:37:42;24.77;;;18.55;;
80852;SDS011;70270;43.434;28.338;2023-07-13T09:40:53;26.35;;;20.05;;
80852;SDS011;70270;43.434;28.338;2023-07-13T09:46:55;24.38;;;19.10;;
80852;SDS011;70270;43.434;28.338;2023-07-13T09:49:39;27.77;;;19.33;;
80852;SDS011;70270;43.434;28.338;2023-07-13T09:52:25;23.80;;;17.58;;
80852;SDS011;70270;43.434;28.338;2023-07-13T09:55:34;23.70;;;16.92;;
80852;SDS011;70270;43.434;28.338;2023-07-13T09:58:20;23.90;;;17.80;;
80852;SDS011;70270;43.434;28.338;2023-07-13T10:01:07;23.70;;;17.98;;
80852;SDS011;70270;43.434;28.338;2023-07-13T10:03:53;25.55;;;18.88;;
80852;SDS011;70270;43.434;28.338;2023-07-13T10:06:38;22.63;;;17.67;;
80852;SDS011;70270;43.434;28.338;2023-07-13T10:09:27;28.23;;;19.35;;
80852;SDS011;70270;43.434;28.338;2023-07-13T10:12:14;27.42;;;19.88;;
80852;SDS011;70270;43.434;28.338;2023-07-13T10:14:59;25.63;;;18.67;;
80852;SDS011;70270;43.434;28.338;2023-07-13T10:17:45;24.60;;;19.50;;
80852;SDS011;70270;43.434;28.338;2023-07-13T10:20:30;24.83;;;20.05;;
80852;SDS011;70270;43.434;28.338;2023-07-13T10:23:17;25.30;;;19.88;;
80852;SDS011;70270;43.434;28.338;2023-07-13T10:26:19;27.98;;;20.73;;
80852;SDS011;70270;43.434;28.338;2023-07-13T10:29:14;23.60;;;19.63;;
80852;SDS011;70270;43.434;28.338;2023-07-13T10:32:00;28.02;;;19.45;;
80852;SDS011;70270;43.434;28.338;2023-07-13T10:34:45;30.55;;;21.88;;
80852;SDS011;70270;43.434;28.338;2023-07-13T10:38:15;28.38;;;21.92;;
80852;SDS011;70270;43.434;28.338;2023-07-13T10:40:48;24.90;;;19.02;;
80852;SDS011;70270;43.434;28.338;2023-07-13T10:43:38;26.25;;;20.95;;
80852;SDS011;70270;43.434;28.338;2023-07-13T10:46:26;28.17;;;21.73;;
80852;SDS011;70270;43.434;28.338;2023-07-13T10:49:12;29.13;;;22.10;;
80852;SDS011;70270;43.434;28.338;2023-07-13T10:51:58;29.65;;;22.33;;
80852;SDS011;70270;43.434;28.338;2023-07-13T10:54:42;24.63;;;20.45;;
80852;SDS011;70270;43.434;28.338;2023-07-13T10:57:27;26.83;;;21.23;;
80852;SDS011;70270;43.434;28.338;2023-07-13T11:00:15;31.75;;;23.00;;
80852;SDS011;70270;43.434;28.338;2023-07-13T11:03:01;27.02;;;21.20;;
80852;SDS011;70270;43.434;28.338;2023-07-13T11:05:50;26.92;;;21.73;;
80852;SDS011;70270;43.434;28.338;2023-07-13T11:11:33;27.40;;;22.05;;
80852;SDS011;70270;43.434;28.338;2023-07-13T11:14:28;30.92;;;23.15;;
80852;SDS011;70270;43.434;28.338;2023-07-13T11:20:20;27.38;;;22.23;;
80852;SDS011;70270;43.434;28.338;2023-07-13T11:23:09;25.67;;;21.88;;
80852;SDS011;70270;43.434;28.338;2023-07-13T11:26:02;30.15;;;22.02;;
80852;SDS011;70270;43.434;28.338;2023-07-13T11:28:47;27.85;;;22.25;;
80852;SDS011;70270;43.434;28.338;2023-07-13T11:31:34;30.67;;;21.92;;
80852;SDS011;70270;43.434;28.338;2023-07-13T11:34:33;26.35;;;22.13;;
80852;SDS011;70270;43.434;28.338;2023-07-13T11:37:19;27.60;;;21.10;;
80852;SDS011;70270;43.434;28.338;2023-07-13T11:40:11;27.77;;;21.15;;
80852;SDS011;70270;43.434;28.338;2023-07-13T11:43:01;30.60;;;20.70;;
80852;SDS011;70270;43.434;28.338;2023-07-13T11:45:51;29.85;;;22.52;;
80852;SDS011;70270;43.434;28.338;2023-07-13T11:48:35;24.50;;;20.83;;
80852;SDS011;70270;43.434;28.338;2023-07-13T11:51:28;27.65;;;21.88;;
80852;SDS011;70270;43.434;28.338;2023-07-13T11:57:23;28.38;;;21.65;;
80852;SDS011;70270;43.434;28.338;2023-07-13T12:00:14;27.70;;;21.17;;
80852;SDS011;70270;43.434;28.338;2023-07-13T12:03:01;30.05;;;20.77;;
80852;SDS011;70270;43.434;28.338;2023-07-13T12:05:56;29.23;;;20.83;;
80852;SDS011;70270;43.434;28.338;2023-07-13T12:08:45;25.40;;;20.33;;
80852;SDS011;70270;43.434;28.338;2023-07-13T12:11:30;28.00;;;20.92;;
80852;SDS011;70270;43.434;28.338;2023-07-13T12:14:19;25.85;;;19.65;;
80852;SDS011;70270;43.434;28.338;2023-07-13T12:23:05;26.63;;;21.27;;
80852;SDS011;70270;43.434;28.338;2023-07-13T12:25:50;27.90;;;21.02;;
80852;SDS011;70270;43.434;28.338;2023-07-13T12:28:40;27.80;;;21.40;;
80852;SDS011;70270;43.434;28.338;2023-07-13T12:31:37;26.20;;;19.83;;
80852;SDS011;70270;43.434;28.338;2023-07-13T12:34:26;26.63;;;20.80;;
80852;SDS011;70270;43.434;28.338;2023-07-13T12:37:11;24.17;;;20.10;;
80852;SDS011;70270;43.434;28.338;2023-07-13T12:39:58;26.38;;;19.45;;
80852;SDS011;70270;43.434;28.338;2023-07-13T12:42:42;27.15;;;19.58;;
80852;SDS011;70270;43.434;28.338;2023-07-13T12:45:27;26.77;;;20.85;;
80852;SDS011;70270;43.434;28.338;2023-07-13T12:51:00;28.63;;;22.40;;
80852;SDS011;70270;43.434;28.338;2023-07-13T12:53:49;27.55;;;22.70;;
80852;SDS011;70270;43.434;28.338;2023-07-13T12:56:38;27.05;;;20.45;;
80852;SDS011;70270;43.434;28.338;2023-07-13T12:59:22;30.08;;;23.77;;
80852;SDS011;70270;43.434;28.338;2023-07-13T13:02:41;27.50;;;21.98;;
80852;SDS011;70270;43.434;28.338;2023-07-13T13:05:19;27.38;;;22.75;;
80852;SDS011;70270;43.434;28.338;2023-07-13T13:08:08;29.92;;;23.30;;
80852;SDS011;70270;43.434;28.338;2023-07-13T13:10:55;28.48;;;21.92;;
80852;SDS011;70270;43.434;28.338;2023-07-13T13:13:39;28.40;;;22.90;;
80852;SDS011;70270;43.434;28.338;2023-07-13T13:16:31;30.08;;;23.40;;
80852;SDS011;70270;43.434;28.338;2023-07-13T13:19:28;33.80;;;25.58;;
80852;SDS011;70270;43.434;28.338;2023-07-13T13:22:13;27.88;;;22.88;;
80852;SDS011;70270;43.434;28.338;2023-07-13T13:24:58;33.90;;;25.95;;
80852;SDS011;70270;43.434;28.338;2023-07-13T13:27:43;36.10;;;25.52;;
80852;SDS011;70270;43.434;28.338;2023-07-13T13:30:29;35.85;;;28.75;;
80852;SDS011;70270;43.434;28.338;2023-07-13T13:33:15;37.50;;;29.63;;
80852;SDS011;70270;43.434;28.338;2023-07-13T13:36:01;37.22;;;28.13;;
80852;SDS011;70270;43.434;28.338;2023-07-13T13:38:46;36.83;;;29.80;;
80852;SDS011;70270;43.434;28.338;2023-07-13T13:41:31;37.15;;;29.15;;
80852;SDS011;70270;43.434;28.338;2023-07-13T13:44:16;40.42;;;30.02;;
80852;SDS011;70270;43.434;28.338;2023-07-13T13:47:02;38.17;;;31.42;;
80852;SDS011;70270;43.434;28.338;2023-07-13T13:49:46;40.08;;;30.25;;
80852;SDS011;70270;43.434;28.338;2023-07-13T13:52:31;40.72;;;31.15;;
80852;SDS011;70270;43.434;28.338;2023-07-13T13:55:16;39.58;;;32.03;;
80852;SDS011;70270;43.434;28.338;2023-07-13T13:58:03;38.97;;;31.10;;
80852;SDS011;70270;43.434;28.338;2023-07-13T14:00:48;38.38;;;29.08;;
80852;SDS011;70270;43.434;28.338;2023-07-13T14:06:18;42.30;;;30.45;;
80852;SDS011;70270;43.434;28.338;2023-07-13T14:09:02;40.72;;;32.35;;
80852;SDS011;70270;43.434;28.338;2023-07-13T14:11:49;38.20;;;30.85;;
80852;SDS011;70270;43.434;28.338;2023-07-13T14:14:35;37.00;;;29.20;;
80852;SDS011;70270;43.434;28.338;2023-07-13T14:17:20;42.78;;;32.03;;
80852;SDS011;70270;43.434;28.338;2023-07-13T14:20:10;41.40;;;32.25;;
80852;SDS011;70270;43.434;28.338;2023-07-13T14:22:55;41.05;;;32.33;;
80852;SDS011;70270;43.434;28.338;2023-07-13T14:25:40;40.28;;;31.90;;
80852;SDS011;70270;43.434;28.338;2023-07-13T14:28:26;41.90;;;33.38;;
80852;SDS011;70270;43.434;28.338;2023-07-13T14:31:12;42.70;;;33.45;;
80852;SDS011;70270;43.434;28.338;2023-07-13T14:33:58;42.92;;;35.05;;
80852;SDS011;70270;43.434;28.338;2023-07-13T14:36:44;43.53;;;33.42;;
80852;SDS011;70270;43.434;28.338;2023-07-13T14:39:31;41.75;;;32.97;;
80852;SDS011;70270;43.434;28.338;2023-07-13T14:42:16;40.65;;;34.10;;
80852;SDS011;70270;43.434;28.338;2023-07-13T14:45:01;41.13;;;31.40;;
80852;SDS011;70270;43.434;28.338;2023-07-13T14:47:46;42.67;;;32.80;;
80852;SDS011;70270;43.434;28.338;2023-07-13T14:50:31;42.10;;;32.92;;
80852;SDS011;70270;43.434;28.338;2023-07-13T14:53:16;43.90;;;32.75;;
80852;SDS011;70270;43.434;28.338;2023-07-13T14:56:01;46.15;;;35.55;;
80852;SDS011;70270;43.434;28.338;2023-07-13T14:58:45;44.50;;;34.00;;
80852;SDS011;70270;43.434;28.338;2023-07-13T15:01:31;47.45;;;36.58;;
80852;SDS011;70270;43.434;28.338;2023-07-13T15:04:15;52.42;;;40.95;;
80852;SDS011;70270;43.434;28.338;2023-07-13T15:07:02;48.10;;;36.97;;
80852;SDS011;70270;43.434;28.338;2023-07-13T15:09:47;53.97;;;39.92;;
80852;SDS011;70270;43.434;28.338;2023-07-13T15:12:32;50.17;;;40.28;;
80852;SDS011;70270;43.434;28.338;2023-07-13T15:15:16;45.70;;;38.47;;
80852;SDS011;70270;43.434;28.338;2023-07-13T15:18:01;53.33;;;40.30;;
80852;SDS011;70270;43.434;28.338;2023-07-13T15:20:46;47.72;;;35.50;;
80852;SDS011;70270;43.434;28.338;2023-07-13T15:23:32;51.08;;;37.53;;
80852;SDS011;70270;43.434;28.338;2023-07-13T15:26:17;45.90;;;38.17;;
80852;SDS011;70270;43.434;28.338;2023-07-13T15:29:03;49.47;;;38.10;;
80852;SDS011;70270;43.434;28.338;2023-07-13T15:31:47;47.67;;;38.03;;
80852;SDS011;70270;43.434;28.338;2023-07-13T15:34:32;50.28;;;38.47;;
80852;SDS011;70270;43.434;28.338;2023-07-13T15:37:16;53.03;;;40.28;;
80852;SDS011;70270;43.434;28.338;2023-07-13T15:40:01;51.83;;;40.92;;
80852;SDS011;70270;43.434;28.338;2023-07-13T15:42:46;52.45;;;41.60;;
80852;SDS011;70270;43.434;28.338;2023-07-13T15:45:31;51.38;;;40.78;;
80852;SDS011;70270;43.434;28.338;2023-07-13T15:48:17;53.05;;;40.45;;
80852;SDS011;70270;43.434;28.338;2023-07-13T15:51:04;51.10;;;42.08;;
80852;SDS011;70270;43.434;28.338;2023-07-13T15:53:56;58.78;;;43.55;;
80852;SDS011;70270;43.434;28.338;2023-07-13T15:56:45;49.25;;;40.67;;
80852;SDS011;70270;43.434;28.338;2023-07-13T15:59:34;53.83;;;42.08;;
80852;SDS011;70270;43.434;28.338;2023-07-13T16:02:19;52.92;;;42.25;;
80852;SDS011;70270;43.434;28.338;2023-07-13T16:05:04;54.13;;;41.67;;
80852;SDS011;70270;43.434;28.338;2023-07-13T16:07:50;54.67;;;42.72;;
80852;SDS011;70270;43.434;28.338;2023-07-13T16:10:37;54.10;;;41.80;;
80852;SDS011;70270;43.434;28.338;2023-07-13T16:13:24;55.83;;;44.67;;
80852;SDS011;70270;43.434;28.338;2023-07-13T16:16:10;54.42;;;45.72;;
80852;SDS011;70270;43.434;28.338;2023-07-13T16:18:56;57.30;;;43.20;;
80852;SDS011;70270;43.434;28.338;2023-07-13T16:21:44;55.58;;;38.70;;
80852;SDS011;70270;43.434;28.338;2023-07-13T16:24:31;48.90;;;40.45;;
80852;SDS011;70270;43.434;28.338;2023-07-13T16:27:15;54.28;;;39.15;;
80852;SDS011;70270;43.434;28.338;2023-07-13T16:30:08;50.03;;;40.92;;
80852;SDS011;70270;43.434;28.338;2023-07-13T16:33:08;54.22;;;42.63;;
80852;SDS011;70270;43.434;28.338;2023-07-13T16:35:53;55.10;;;41.58;;
80852;SDS011;70270;43.434;28.338;2023-07-13T16:38:38;50.65;;;43.97;;
80852;SDS011;70270;43.434;28.338;2023-07-13T16:41:22;54.70;;;44.97;;
80852;SDS011;70270;43.434;28.338;2023-07-13T16:44:18;59.53;;;44.45;;